DRRC weather

Dogondoutchi Airport
Dogondoutchi, Dosso Region, Niger

Public forecast

Using degrees Celsius for public forecast. Weather courtesy of forecast.io.

METAR (pilot weather report)

Report is more than 6 hours old.

Closest report is Birni-N'Konni Airport, 67.1 nm (124.3 km) E. Retrieved 2019/01/29 10:00 UTC (25 days ago):

DRRB 291000Z 14008KT CAVOK 29/M03 Q////

TAF (pilot weather forecast)

Forecast is more than 12 hours old.

Closest forecast is Sadiq Abubakar III International Airport, 78.8 nm (146.0 km) SE. Retrieved 2019/02/21 12:27 UTC (2 days ago):

TAF DNSO 210930Z 2112/2218 07008KT 3000 HZ NSC TEMPO 2205/2211 1500